Time,TemperatureF,DewpointF,PressureIn,WindDirection,WindDirectionDegrees,WindSpeedMPH,WindSpeedGustMPH,Humidity,HourlyPrecipIn,Conditions,Clouds,dailyrainin,SoftwareType,DateUTC
2013-05-13 00:02:00,43.7,38.1,30.10,West,266,0.0,0.0,80,0.00,,CLR,0.00,VWS V14.01,2013-05-13 05:02:00,
2013-05-13 00:08:00,43.5,37.9,30.10,West,266,0.0,0.0,80,0.00,,CLR,0.00,VWS V14.01,2013-05-13 05:08:00,
2013-05-13 00:13:00,43.3,37.8,30.10,West,266,0.0,0.0,80,0.00,,CLR,0.00,VWS V14.01,2013-05-13 05:13:00,
2013-05-13 00:18:00,43.3,37.8,30.10,West,266,0.0,0.0,80,0.00,,CLR,0.00,VWS V14.01,2013-05-13 05:18:00,
2013-05-13 00:23:00,43.3,37.8,30.10,West,266,0.0,0.0,80,0.00,,CLR,0.00,VWS V14.01,2013-05-13 05:23:00,
2013-05-13 00:28:00,43.3,37.8,30.10,West,266,0.0,0.0,80,0.00,,CLR,0.00,VWS V14.01,2013-05-13 05:28:00,
2013-05-13 00:33:00,43.0,37.4,30.10,West,266,0.0,0.0,80,0.00,,CLR,0.00,VWS V14.01,2013-05-13 05:33:00,
2013-05-13 00:38:00,43.0,37.4,30.10,West,266,0.0,0.0,80,0.00,,CLR,0.00,VWS V14.01,2013-05-13 05:38:00,
2013-05-13 00:43:00,43.0,37.4,30.10,West,266,0.0,0.0,80,0.00,,CLR,0.00,VWS V14.01,2013-05-13 05:43:00,
2013-05-13 00:48:00,43.0,37.4,30.10,West,266,0.0,0.0,80,0.00,,CLR,0.00,VWS V14.01,2013-05-13 05:48:00,
2013-05-13 00:53:00,42.8,37.2,30.10,West,266,0.0,0.0,80,0.00,,CLR,0.00,VWS V14.01,2013-05-13 05:53:00,
2013-05-13 00:58:00,42.8,37.2,30.10,West,266,0.0,0.0,80,0.00,,CLR,0.00,VWS V14.01,2013-05-13 05:58:00,
2013-05-13 01:04:00,42.8,37.2,30.10,West,266,0.0,0.0,80,0.00,,CLR,0.00,VWS V14.01,2013-05-13 06:04:00,
2013-05-13 01:09:00,42.8,37.2,30.10,West,266,0.0,0.0,80,0.00,,CLR,0.00,VWS V14.01,2013-05-13 06:09:00,
2013-05-13 01:14:00,42.8,37.2,30.10,West,267,0.0,0.0,80,0.00,,CLR,0.00,VWS V14.01,2013-05-13 06:14:00,
2013-05-13 01:19:00,42.8,37.2,30.10,West,267,0.0,0.0,80,0.00,,CLR,0.00,VWS V14.01,2013-05-13 06:19:00,
2013-05-13 01:24:00,42.8,37.2,30.10,West,267,0.0,0.0,80,0.00,,CLR,0.00,VWS V14.01,2013-05-13 06:24:00,
2013-05-13 01:29:00,43.0,37.4,30.10,West,267,0.0,0.0,80,0.00,,CLR,0.00,VWS V14.01,2013-05-13 06:29:00,
2013-05-13 01:34:00,43.0,37.4,30.10,West,268,0.0,0.0,80,0.00,,CLR,0.00,VWS V14.01,2013-05-13 06:34:00,
2013-05-13 01:39:00,43.0,37.4,30.10,WNW,290,0.0,0.0,80,0.00,,CLR,0.00,VWS V14.01,2013-05-13 06:39:00,
2013-05-13 01:44:00,43.0,37.4,30.10,WNW,290,0.0,0.0,80,0.00,,CLR,0.00,VWS V14.01,2013-05-13 06:44:00,
2013-05-13 01:49:00,43.2,37.6,30.10,WNW,290,0.0,0.0,80,0.00,,CLR,0.00,VWS V14.01,2013-05-13 06:49:00,
2013-05-13 01:54:00,43.2,37.6,30.10,WNW,290,0.0,0.0,80,0.00,,CLR,0.00,VWS V14.01,2013-05-13 06:54:00,
2013-05-13 01:59:00,43.0,37.4,30.10,WNW,290,0.0,0.0,80,0.00,,CLR,0.00,VWS V14.01,2013-05-13 06:59:00,
2013-05-13 02:05:00,43.0,37.4,30.10,WNW,290,0.0,0.0,80,0.00,,CLR,0.00,VWS V14.01,2013-05-13 07:05:00,
2013-05-13 02:10:00,42.8,37.2,30.10,WNW,293,0.0,0.0,80,0.00,,CLR,0.00,VWS V14.01,2013-05-13 07:10:00,
2013-05-13 02:15:00,43.0,37.4,30.10,WNW,293,0.0,0.0,80,0.00,,CLR,0.00,VWS V14.01,2013-05-13 07:15:00,
2013-05-13 02:20:00,43.0,37.4,30.10,West,280,0.0,2.7,80,0.00,,CLR,0.00,VWS V14.01,2013-05-13 07:20:00,
2013-05-13 02:25:00,43.0,37.4,30.10,WNW,283,0.0,0.0,80,0.00,,CLR,0.00,VWS V14.01,2013-05-13 07:25:00,
2013-05-13 02:30:00,43.3,37.8,30.10,NNW,334,0.0,0.0,80,0.00,,CLR,0.00,VWS V14.01,2013-05-13 07:30:00,
2013-05-13 02:35:00,43.2,37.6,30.10,NNW,333,0.0,0.0,80,0.00,,CLR,0.00,VWS V14.01,2013-05-13 07:35:00,
2013-05-13 02:40:00,43.2,37.6,30.10,NNW,338,0.0,0.0,80,0.00,,CLR,0.00,VWS V14.01,2013-05-13 07:40:00,
2013-05-13 02:45:00,43.2,37.6,30.10,North,353,0.0,0.0,80,0.00,,CLR,0.00,VWS V14.01,2013-05-13 07:45:00,
2013-05-13 02:50:00,43.0,37.4,30.10,NNW,345,0.0,0.0,80,0.00,,CLR,0.00,VWS V14.01,2013-05-13 07:50:00,
2013-05-13 02:55:00,42.8,37.2,30.10,NNW,345,0.0,0.0,80,0.00,,CLR,0.00,VWS V14.01,2013-05-13 07:55:00,
2013-05-13 03:00:00,42.6,37.0,30.10,NNW,345,0.0,0.0,80,0.00,,CLR,0.00,VWS V14.01,2013-05-13 08:00:00,
2013-05-13 03:05:00,42.4,36.9,30.10,NNW,345,0.0,0.0,80,0.00,,CLR,0.00,VWS V14.01,2013-05-13 08:05:00,
2013-05-13 03:11:00,42.3,36.7,30.10,NNW,345,0.0,0.0,80,0.00,,CLR,0.00,VWS V14.01,2013-05-13 08:11:00,
2013-05-13 03:16:00,42.3,36.7,30.10,NNW,345,0.0,0.0,80,0.00,,CLR,0.00,VWS V14.01,2013-05-13 08:16:00,
2013-05-13 03:21:00,42.1,36.5,30.10,NNW,345,0.0,0.0,80,0.00,,CLR,0.00,VWS V14.01,2013-05-13 08:21:00,
2013-05-13 03:26:00,42.1,36.5,30.10,NNW,345,0.0,0.0,80,0.00,,CLR,0.00,VWS V14.01,2013-05-13 08:26:00,
2013-05-13 03:31:00,41.7,36.2,30.10,NNW,345,0.0,0.0,80,0.00,,CLR,0.00,VWS V14.01,2013-05-13 08:31:00,
2013-05-13 03:36:00,41.5,36.0,30.10,NNW,345,0.0,0.0,80,0.00,,CLR,0.00,VWS V14.01,2013-05-13 08:36:00,
2013-05-13 03:41:00,41.4,35.8,30.10,NNW,345,0.0,0.0,80,0.00,,CLR,0.00,VWS V14.01,2013-05-13 08:41:00,
2013-05-13 03:46:00,41.4,35.8,30.10,NNW,345,0.0,0.0,80,0.00,,CLR,0.00,VWS V14.01,2013-05-13 08:46:00,
2013-05-13 03:51:00,41.5,36.0,30.10,NNW,345,0.0,0.0,80,0.00,,CLR,0.00,VWS V14.01,2013-05-13 08:51:00,
2013-05-13 03:56:00,41.5,36.0,30.10,NNW,345,0.0,0.0,80,0.00,,CLR,0.00,VWS V14.01,2013-05-13 08:56:00,
2013-05-13 04:02:00,41.5,36.0,30.10,NNW,345,0.0,0.0,80,0.00,,CLR,0.00,VWS V14.01,2013-05-13 09:02:00,
2013-05-13 04:07:00,41.5,36.0,30.10,NNW,345,0.0,0.0,80,0.00,,CLR,0.00,VWS V14.01,2013-05-13 09:07:00,
2013-05-13 04:12:00,41.5,36.0,30.10,NNW,345,0.0,0.0,80,0.00,,CLR,0.00,VWS V14.01,2013-05-13 09:12:00,
2013-05-13 04:17:00,41.5,36.0,30.10,NNW,345,0.0,0.0,80,0.00,,CLR,0.00,VWS V14.01,2013-05-13 09:17:00,
2013-05-13 04:22:00,41.4,35.8,30.10,NNW,345,0.0,0.0,80,0.00,,CLR,0.00,VWS V14.01,2013-05-13 09:22:00,
2013-05-13 04:27:00,41.4,35.8,30.10,NNW,345,0.0,0.0,80,0.00,,CLR,0.00,VWS V14.01,2013-05-13 09:27:00,
2013-05-13 04:32:00,41.4,35.8,30.10,NNW,345,0.0,0.0,80,0.00,,CLR,0.00,VWS V14.01,2013-05-13 09:32:00,
2013-05-13 04:37:00,41.4,35.8,30.10,NNW,345,0.0,0.0,80,0.00,,CLR,0.00,VWS V14.01,2013-05-13 09:37:00,
2013-05-13 04:42:00,41.2,35.7,30.10,NNW,345,0.0,0.0,80,0.00,,CLR,0.00,VWS V14.01,2013-05-13 09:42:00,
2013-05-13 04:47:00,41.0,35.5,30.10,NNW,345,0.0,0.0,80,0.00,,CLR,0.00,VWS V14.01,2013-05-13 09:47:00,
2013-05-13 04:52:00,41.0,35.5,30.10,NNW,345,0.0,0.0,80,0.00,,CLR,0.00,VWS V14.01,2013-05-13 09:52:00,
2013-05-13 04:57:00,41.0,35.5,30.10,NNW,345,0.0,0.0,80,0.00,,CLR,0.00,VWS V14.01,2013-05-13 09:57:00,
2013-05-13 05:03:00,41.0,35.5,30.10,NNW,345,0.0,0.0,80,0.00,,CLR,0.00,VWS V14.01,2013-05-13 10:03:00,
2013-05-13 05:08:00,40.8,35.3,30.10,NNW,345,0.0,0.0,80,0.00,,CLR,0.00,VWS V14.01,2013-05-13 10:08:00,
2013-05-13 05:13:00,40.6,35.1,30.10,NNW,345,0.0,0.0,80,0.00,,CLR,0.00,VWS V14.01,2013-05-13 10:13:00,
2013-05-13 05:18:00,40.5,34.9,30.10,NNW,345,0.0,0.0,80,0.00,,CLR,0.00,VWS V14.01,2013-05-13 10:18:00,
2013-05-13 05:23:00,40.3,34.8,30.10,NNW,345,0.0,0.0,80,0.00,,CLR,0.00,VWS V14.01,2013-05-13 10:23:00,
2013-05-13 05:28:00,40.1,34.6,30.10,NNW,345,0.0,0.0,80,0.00,,CLR,0.00,VWS V14.01,2013-05-13 10:28:00,
2013-05-13 05:33:00,39.9,34.4,30.10,NNW,345,0.0,0.0,80,0.00,,CLR,0.00,VWS V14.01,2013-05-13 10:33:00,
2013-05-13 05:38:00,39.9,34.4,30.10,NNW,345,0.0,0.0,80,0.00,,CLR,0.00,VWS V14.01,2013-05-13 10:38:00,
2013-05-13 05:43:00,39.7,34.2,30.10,NNW,345,0.0,0.0,80,0.00,,CLR,0.00,VWS V14.01,2013-05-13 10:43:00,
2013-05-13 05:48:00,39.6,34.1,30.10,NNW,345,0.0,0.0,80,0.00,,CLR,0.00,VWS V14.01,2013-05-13 10:48:00,
2013-05-13 05:54:00,39.4,33.9,30.10,NNW,345,0.0,0.0,80,0.00,,CLR,0.00,VWS V14.01,2013-05-13 10:54:00,
2013-05-13 05:59:00,39.2,33.7,30.10,NNW,345,0.0,0.0,80,0.00,,CLR,0.00,VWS V14.01,2013-05-13 10:59:00,
2013-05-13 06:04:00,39.2,33.7,30.10,NNW,345,0.0,0.0,80,0.00,,CLR,0.00,VWS V14.01,2013-05-13 11:04:00,
2013-05-13 06:09:00,39.4,33.9,30.10,NNW,345,0.0,0.0,80,0.00,,CLR,0.00,VWS V14.01,2013-05-13 11:09:00,
2013-05-13 06:14:00,39.6,34.1,30.10,NNW,345,0.0,0.0,80,0.00,,CLR,0.00,VWS V14.01,2013-05-13 11:14:00,
2013-05-13 06:19:00,39.9,34.4,30.10,NNW,345,0.0,0.0,80,0.00,,CLR,0.00,VWS V14.01,2013-05-13 11:19:00,
2013-05-13 06:24:00,40.1,34.6,30.10,NNW,345,0.0,0.0,80,0.00,,CLR,0.00,VWS V14.01,2013-05-13 11:24:00,
2013-05-13 06:29:00,40.3,34.8,30.10,NNW,345,0.0,0.0,80,0.00,,CLR,0.00,VWS V14.01,2013-05-13 11:29:00,
2013-05-13 06:34:00,40.5,34.9,30.10,NNW,345,0.0,0.0,80,0.00,,CLR,0.00,VWS V14.01,2013-05-13 11:34:00,
2013-05-13 06:39:00,41.0,35.5,30.10,NNW,345,0.0,0.0,80,0.00,,CLR,0.00,VWS V14.01,2013-05-13 11:39:00,
2013-05-13 06:44:00,41.4,35.8,30.13,NNW,345,0.0,0.0,80,0.00,,CLR,0.00,VWS V14.01,2013-05-13 11:44:00,
2013-05-13 06:50:00,41.9,36.3,30.13,NNW,333,0.0,0.0,80,0.00,,CLR,0.00,VWS V14.01,2013-05-13 11:50:00,
2013-05-13 06:55:00,42.4,36.9,30.13,WSW,239,0.0,0.0,80,0.00,,CLR,0.00,VWS V14.01,2013-05-13 11:55:00,
2013-05-13 07:00:00,42.6,37.0,30.13,SW,230,0.0,0.0,80,0.00,,CLR,0.00,VWS V14.01,2013-05-13 12:00:00,
2013-05-13 07:05:00,42.6,37.0,30.13,SW,230,0.0,0.0,80,0.00,,CLR,0.00,VWS V14.01,2013-05-13 12:05:00,
2013-05-13 07:10:00,42.8,37.2,30.13,SW,230,0.0,0.0,80,0.00,,CLR,0.00,VWS V14.01,2013-05-13 12:10:00,
2013-05-13 07:15:00,43.0,37.4,30.13,SW,227,0.0,0.0,80,0.00,,CLR,0.00,VWS V14.01,2013-05-13 12:15:00,
2013-05-13 07:20:00,43.3,37.8,30.13,SW,232,0.0,0.0,80,0.00,,CLR,0.00,VWS V14.01,2013-05-13 12:20:00,
2013-05-13 07:25:00,43.5,37.9,30.13,SW,232,0.0,0.0,80,0.00,,CLR,0.00,VWS V14.01,2013-05-13 12:25:00,
2013-05-13 07:30:00,43.7,38.1,30.13,West,275,0.0,0.0,80,0.00,,CLR,0.00,VWS V14.01,2013-05-13 12:30:00,
2013-05-13 07:35:00,44.2,38.6,30.13,SW,227,0.0,0.0,80,0.00,,CLR,0.00,VWS V14.01,2013-05-13 12:35:00,
2013-05-13 07:40:00,45.0,38.2,30.13,SW,224,0.0,0.0,77,0.00,,CLR,0.00,VWS V14.01,2013-05-13 12:40:00,
2013-05-13 07:46:00,45.9,39.1,30.13,WNW,283,0.0,0.0,77,0.00,,CLR,0.00,VWS V14.01,2013-05-13 12:46:00,
2013-05-13 07:51:00,46.9,40.1,30.13,WNW,283,0.0,0.0,77,0.00,,CLR,0.00,VWS V14.01,2013-05-13 12:51:00,
2013-05-13 07:56:00,48.0,41.2,30.13,WNW,283,0.0,0.0,77,0.00,,CLR,0.00,VWS V14.01,2013-05-13 12:56:00,
2013-05-13 08:01:00,49.5,41.3,30.13,WNW,283,0.0,0.0,74,0.00,,CLR,0.00,VWS V14.01,2013-05-13 13:01:00,
2013-05-13 08:06:00,50.5,42.4,30.13,SSW,205,0.0,0.0,74,0.00,,CLR,0.00,VWS V14.01,2013-05-13 13:06:00,
2013-05-13 08:11:00,50.9,42.7,30.13,SW,223,0.0,0.0,74,0.00,,CLR,0.00,VWS V14.01,2013-05-13 13:11:00,
2013-05-13 08:16:00,51.3,43.1,30.16,South,184,0.0,0.0,74,0.00,,CLR,0.00,VWS V14.01,2013-05-13 13:16:00,
2013-05-13 08:21:00,51.8,43.6,30.16,South,189,0.0,0.0,74,0.00,,CLR,0.00,VWS V14.01,2013-05-13 13:21:00,
2013-05-13 08:26:00,52.3,44.1,30.16,South,189,0.0,0.0,74,0.00,,CLR,0.00,VWS V14.01,2013-05-13 13:26:00,
2013-05-13 08:31:00,53.6,44.1,30.16,SSW,192,0.0,0.0,70,0.00,,CLR,0.00,VWS V14.01,2013-05-13 13:31:00,
2013-05-13 08:37:00,54.5,44.9,30.16,SSW,212,0.0,0.0,70,0.00,,CLR,0.00,VWS V14.01,2013-05-13 13:37:00,
2013-05-13 08:42:00,55.0,45.5,30.16,SW,217,0.0,0.0,70,0.00,,CLR,0.00,VWS V14.01,2013-05-13 13:42:00,
2013-05-13 08:47:00,55.9,46.3,30.16,SW,232,0.0,0.0,70,0.00,,CLR,0.00,VWS V14.01,2013-05-13 13:47:00,
2013-05-13 08:52:00,56.7,47.0,30.16,South,177,0.0,0.0,70,0.00,,CLR,0.00,VWS V14.01,2013-05-13 13:52:00,
2013-05-13 08:57:00,57.0,47.3,30.16,South,181,0.0,0.0,70,0.00,,CLR,0.00,VWS V14.01,2013-05-13 13:57:00,
2013-05-13 09:02:00,57.2,46.2,30.16,South,179,0.0,0.0,66,0.00,,CLR,0.00,VWS V14.01,2013-05-13 14:02:00,
2013-05-13 09:07:00,57.6,46.5,30.16,SSW,213,0.0,3.6,66,0.00,,CLR,0.00,VWS V14.01,2013-05-13 14:07:00,
2013-05-13 09:12:00,57.4,46.3,30.16,South,176,0.0,0.0,66,0.00,,CLR,0.00,VWS V14.01,2013-05-13 14:12:00,
2013-05-13 09:17:00,57.7,46.7,30.16,SSW,193,0.0,0.0,66,0.00,,CLR,0.00,VWS V14.01,2013-05-13 14:17:00,
2013-05-13 09:22:00,58.1,47.0,30.16,SSW,209,0.0,3.1,66,0.00,,CLR,0.00,VWS V14.01,2013-05-13 14:22:00,
2013-05-13 09:27:00,58.3,47.2,30.16,SSW,203,0.0,2.2,66,0.00,,CLR,0.00,VWS V14.01,2013-05-13 14:27:00,
2013-05-13 09:32:00,58.6,47.5,30.16,WSW,248,0.0,0.0,66,0.00,,CLR,0.00,VWS V14.01,2013-05-13 14:32:00,
2013-05-13 09:38:00,59.0,47.9,30.16,SSE,159,0.0,0.0,66,0.00,,CLR,0.00,VWS V14.01,2013-05-13 14:38:00,
2013-05-13 09:43:00,59.5,48.4,30.16,SSW,192,0.0,4.0,66,0.00,,CLR,0.00,VWS V14.01,2013-05-13 14:43:00,
2013-05-13 09:48:00,59.9,48.7,30.16,West,280,0.0,0.0,66,0.00,,CLR,0.00,VWS V14.01,2013-05-13 14:48:00,
2013-05-13 09:53:00,59.7,48.6,30.16,WNW,291,0.0,3.1,66,0.00,,CLR,0.00,VWS V14.01,2013-05-13 14:53:00,
2013-05-13 09:58:00,60.1,48.9,30.16,SW,234,0.0,0.0,66,0.00,,CLR,0.00,VWS V14.01,2013-05-13 14:58:00,
2013-05-13 10:03:00,60.1,48.9,30.16,North,0,5.4,5.4,66,0.00,,CLR,0.00,VWS V14.01,2013-05-13 15:03:00,
2013-05-13 10:08:00,60.1,48.9,30.16,South,173,2.7,4.0,66,0.00,,CLR,0.00,VWS V14.01,2013-05-13 15:08:00,
2013-05-13 10:13:00,60.4,49.2,30.16,West,264,0.0,4.0,66,0.00,,CLR,0.00,VWS V14.01,2013-05-13 15:13:00,
2013-05-13 10:18:00,60.6,49.4,30.16,SW,230,0.0,3.6,66,0.00,,CLR,0.00,VWS V14.01,2013-05-13 15:18:00,
2013-05-13 10:23:00,61.3,50.1,30.16,SSW,196,2.7,5.4,66,0.00,,CLR,0.00,VWS V14.01,2013-05-13 15:23:00,
2013-05-13 10:28:00,61.3,50.1,30.16,NNW,328,4.0,4.5,66,0.00,,CLR,0.00,VWS V14.01,2013-05-13 15:28:00,
2013-05-13 10:33:00,61.5,50.3,30.16,SSE,151,4.5,5.4,66,0.00,,CLR,0.00,VWS V14.01,2013-05-13 15:33:00,
2013-05-13 10:38:00,61.9,50.6,30.16,SSE,160,2.2,5.8,66,0.00,,CLR,0.00,VWS V14.01,2013-05-13 15:38:00,
2013-05-13 10:44:00,61.9,50.6,30.16,SSW,194,0.0,4.9,66,0.00,,CLR,0.00,VWS V14.01,2013-05-13 15:44:00,
2013-05-13 10:49:00,62.2,51.0,30.16,West,274,3.6,4.9,66,0.00,,CLR,0.00,VWS V14.01,2013-05-13 15:49:00,
2013-05-13 10:54:00,62.6,49.8,30.16,NNE,17,0.0,4.0,63,0.00,,CLR,0.00,VWS V14.01,2013-05-13 15:54:00,
2013-05-13 10:59:00,63.0,50.2,30.16,SW,215,0.0,4.0,63,0.00,,CLR,0.00,VWS V14.01,2013-05-13 15:59:00,
2013-05-13 11:04:00,63.0,50.2,30.16,WSW,240,0.0,5.4,63,0.00,,CLR,0.00,VWS V14.01,2013-05-13 16:04:00,
2013-05-13 11:09:00,63.5,50.7,30.16,WSW,239,2.2,4.9,63,0.00,,CLR,0.00,VWS V14.01,2013-05-13 16:09:00,
2013-05-13 11:14:00,63.7,50.9,30.16,North,5,3.1,6.3,63,0.00,,CLR,0.00,VWS V14.01,2013-05-13 16:14:00,
2013-05-13 11:19:00,63.9,51.0,30.16,NE,48,0.0,6.3,63,0.00,,CLR,0.00,VWS V14.01,2013-05-13 16:19:00,
2013-05-13 11:24:00,64.0,51.2,30.16,WSW,258,4.0,5.4,63,0.00,,CLR,0.00,VWS V14.01,2013-05-13 16:24:00,
2013-05-13 11:29:00,64.2,51.4,30.13,NNE,27,0.0,0.0,63,0.00,,CLR,0.00,VWS V14.01,2013-05-13 16:29:00,
2013-05-13 11:35:00,64.4,51.5,30.13,NE,41,0.0,5.4,63,0.00,,CLR,0.00,VWS V14.01,2013-05-13 16:35:00,
2013-05-13 11:40:00,65.1,52.2,30.13,West,276,4.5,4.5,63,0.00,,CLR,0.00,VWS V14.01,2013-05-13 16:40:00,
2013-05-13 11:45:00,65.5,52.6,30.13,WSW,244,2.2,5.8,63,0.00,,CLR,0.00,VWS V14.01,2013-05-13 16:45:00,
2013-05-13 11:50:00,65.7,52.7,30.13,WNW,283,0.0,5.8,63,0.00,,CLR,0.00,VWS V14.01,2013-05-13 16:50:00,
2013-05-13 11:55:00,65.8,52.9,30.13,NNW,332,0.0,5.4,63,0.00,,CLR,0.00,VWS V14.01,2013-05-13 16:55:00,
2013-05-13 12:00:00,66.2,51.7,30.13,WSW,240,0.0,0.0,60,0.00,,CLR,0.00,VWS V14.01,2013-05-13 17:00:00,
2013-05-13 12:05:00,66.6,52.0,30.13,North,349,8.3,8.3,60,0.00,,CLR,0.00,VWS V14.01,2013-05-13 17:05:00,
2013-05-13 12:10:00,66.4,51.9,30.13,North,353,4.0,4.0,60,0.00,,CLR,0.00,VWS V14.01,2013-05-13 17:10:00,
2013-05-13 12:15:00,66.4,51.9,30.13,SSW,207,0.0,0.0,60,0.00,,CLR,0.00,VWS V14.01,2013-05-13 17:15:00,
2013-05-13 12:20:00,66.4,51.9,30.13,SSW,204,0.0,0.0,60,0.00,,CLR,0.00,VWS V14.01,2013-05-13 17:20:00,
2013-05-13 12:25:00,66.4,51.9,30.13,WSW,248,0.0,0.0,60,0.00,,CLR,0.00,VWS V14.01,2013-05-13 17:25:00,
2013-05-13 12:30:00,67.1,52.5,30.13,WNW,290,4.0,6.3,60,0.00,,CLR,0.00,VWS V14.01,2013-05-13 17:30:00,
2013-05-13 12:35:00,67.1,52.5,30.13,NNE,32,0.0,3.1,60,0.00,,CLR,0.00,VWS V14.01,2013-05-13 17:35:00,
2013-05-13 12:40:00,67.5,52.9,30.13,North,0,0.0,3.1,60,0.00,,CLR,0.00,VWS V14.01,2013-05-13 17:40:00,
2013-05-13 12:46:00,67.6,53.0,30.13,ENE,77,0.0,0.0,60,0.00,,CLR,0.00,VWS V14.01,2013-05-13 17:46:00,
2013-05-13 12:51:00,67.6,53.0,30.13,SSE,152,0.0,2.7,60,0.00,,CLR,0.00,VWS V14.01,2013-05-13 17:51:00,
2013-05-13 12:56:00,67.8,53.2,30.13,NNW,341,3.6,4.9,60,0.00,,CLR,0.00,VWS V14.01,2013-05-13 17:56:00,
2013-05-13 13:01:00,67.8,53.2,30.10,SW,218,0.0,5.4,60,0.00,,CLR,0.00,VWS V14.01,2013-05-13 18:01:00,
2013-05-13 13:06:00,67.8,53.2,30.10,SW,232,2.2,3.6,60,0.00,,CLR,0.00,VWS V14.01,2013-05-13 18:06:00,
2013-05-13 13:11:00,68.2,53.5,30.10,West,269,0.0,3.6,60,0.00,,CLR,0.00,VWS V14.01,2013-05-13 18:11:00,
2013-05-13 13:16:00,68.0,53.4,30.10,SSW,209,0.0,4.9,60,0.00,,CLR,0.00,VWS V14.01,2013-05-13 18:16:00,
2013-05-13 13:21:00,68.4,53.7,30.10,NE,47,0.0,2.2,60,0.00,,CLR,0.00,VWS V14.01,2013-05-13 18:21:00,
2013-05-13 13:26:00,68.0,53.4,30.10,South,182,0.0,3.1,60,0.00,,CLR,0.00,VWS V14.01,2013-05-13 18:26:00,
2013-05-13 13:31:00,68.0,53.4,30.10,NNW,331,0.0,3.6,60,0.00,,CLR,0.00,VWS V14.01,2013-05-13 18:31:00,
2013-05-13 13:36:00,68.4,53.7,30.10,NNW,331,3.1,4.9,60,0.00,,CLR,0.00,VWS V14.01,2013-05-13 18:36:00,
2013-05-13 13:42:00,69.1,54.4,30.10,SSW,213,3.1,5.4,60,0.00,,CLR,0.00,VWS V14.01,2013-05-13 18:42:00,
2013-05-13 13:47:00,69.3,54.6,30.10,South,184,0.0,5.4,60,0.00,,CLR,0.00,VWS V14.01,2013-05-13 18:47:00,
2013-05-13 13:52:00,69.1,54.4,30.10,NE,36,0.0,0.0,60,0.00,,CLR,0.00,VWS V14.01,2013-05-13 18:52:00,
2013-05-13 13:57:00,69.4,54.7,30.10,SW,230,0.0,6.3,60,0.00,,CLR,0.00,VWS V14.01,2013-05-13 18:57:00,
2013-05-13 14:02:00,69.6,54.9,30.10,West,279,2.7,5.4,60,0.00,,CLR,0.00,VWS V14.01,2013-05-13 19:02:00,
2013-05-13 14:07:00,69.8,55.1,30.10,WSW,243,3.1,3.6,60,0.00,,CLR,0.00,VWS V14.01,2013-05-13 19:07:00,
2013-05-13 14:12:00,69.8,55.1,30.10,North,9,0.0,0.0,60,0.00,,CLR,0.00,VWS V14.01,2013-05-13 19:12:00,
2013-05-13 14:17:00,70.0,55.2,30.10,NW,319,5.4,5.4,60,0.00,,CLR,0.00,VWS V14.01,2013-05-13 19:17:00,
2013-05-13 14:22:00,70.3,55.6,30.10,WSW,243,3.6,6.3,60,0.00,,CLR,0.00,VWS V14.01,2013-05-13 19:22:00,
2013-05-13 14:27:00,70.5,55.8,30.10,WSW,241,0.0,7.6,60,0.00,,CLR,0.00,VWS V14.01,2013-05-13 19:27:00,
2013-05-13 14:33:00,70.5,55.8,30.10,North,7,0.0,6.3,60,0.00,,CLR,0.00,VWS V14.01,2013-05-13 19:33:00,
2013-05-13 14:38:00,70.7,55.9,30.10,West,277,4.0,6.3,60,0.00,,CLR,0.00,VWS V14.01,2013-05-13 19:38:00,
2013-05-13 14:43:00,70.5,55.8,30.10,WSW,248,3.1,4.9,60,0.00,,CLR,0.00,VWS V14.01,2013-05-13 19:43:00,
2013-05-13 14:48:00,70.3,55.6,30.07,South,178,2.7,6.3,60,0.00,,CLR,0.00,VWS V14.01,2013-05-13 19:48:00,
2013-05-13 14:53:00,70.5,55.8,30.07,SW,219,4.0,4.9,60,0.00,,CLR,0.00,VWS V14.01,2013-05-13 19:53:00,
2013-05-13 14:58:00,70.7,55.9,30.07,NNE,27,0.0,3.6,60,0.00,,CLR,0.00,VWS V14.01,2013-05-13 19:58:00,
2013-05-13 15:03:00,71.2,56.4,30.07,SSW,205,3.1,5.4,60,0.00,,CLR,0.00,VWS V14.01,2013-05-13 20:03:00,
2013-05-13 15:08:00,70.9,56.1,30.07,South,180,5.8,8.1,60,0.00,,CLR,0.00,VWS V14.01,2013-05-13 20:08:00,
2013-05-13 15:13:00,71.2,56.4,30.07,SW,220,4.0,4.0,60,0.00,,CLR,0.00,VWS V14.01,2013-05-13 20:13:00,
2013-05-13 15:18:00,71.6,55.1,30.07,SSW,197,5.4,5.4,56,0.00,,CLR,0.00,VWS V14.01,2013-05-13 20:18:00,
2013-05-13 15:23:00,71.2,56.4,30.07,WNW,282,6.7,6.7,60,0.00,,CLR,0.00,VWS V14.01,2013-05-13 20:23:00,
2013-05-13 15:29:00,71.1,56.3,30.07,SW,227,2.7,8.1,60,0.00,,CLR,0.00,VWS V14.01,2013-05-13 20:29:00,
2013-05-13 15:34:00,71.2,56.4,30.07,SSW,209,0.0,5.4,60,0.00,,CLR,0.00,VWS V14.01,2013-05-13 20:34:00,
2013-05-13 15:39:00,71.4,56.6,30.07,WSW,248,2.7,4.9,60,0.00,,CLR,0.00,VWS V14.01,2013-05-13 20:39:00,
2013-05-13 15:44:00,71.6,55.1,30.07,SSW,194,2.7,4.0,56,0.00,,CLR,0.00,VWS V14.01,2013-05-13 20:44:00,
2013-05-13 15:49:00,71.4,56.6,30.07,SW,225,3.1,5.8,60,0.00,,CLR,0.00,VWS V14.01,2013-05-13 20:49:00,
2013-05-13 15:54:00,71.1,56.3,30.07,West,261,0.0,7.6,60,0.00,,CLR,0.00,VWS V14.01,2013-05-13 20:54:00,
2013-05-13 15:59:00,71.4,56.6,30.04,SW,218,0.0,6.3,60,0.00,,CLR,0.00,VWS V14.01,2013-05-13 20:59:00,
2013-05-13 16:04:00,72.0,55.4,30.04,WNW,298,3.1,7.6,56,0.00,,CLR,0.00,VWS V14.01,2013-05-13 21:04:00,
2013-05-13 16:09:00,72.3,55.8,30.04,WSW,239,0.0,3.6,56,0.00,,CLR,0.00,VWS V14.01,2013-05-13 21:09:00,
2013-05-13 16:14:00,72.3,55.8,30.04,SSW,199,5.4,6.3,56,0.00,,CLR,0.00,VWS V14.01,2013-05-13 21:14:00,
2013-05-13 16:20:00,72.5,55.9,30.04,SSW,204,5.8,5.8,56,0.00,,CLR,0.00,VWS V14.01,2013-05-13 21:20:00,
2013-05-13 16:25:00,72.0,55.4,30.04,SSE,160,0.0,7.6,56,0.00,,CLR,0.00,VWS V14.01,2013-05-13 21:25:00,
2013-05-13 16:30:00,71.2,56.4,30.04,WNW,292,2.7,6.3,60,0.00,,CLR,0.00,VWS V14.01,2013-05-13 21:30:00,
2013-05-13 16:35:00,71.2,56.4,30.04,WSW,248,5.4,5.4,60,0.00,,CLR,0.00,VWS V14.01,2013-05-13 21:35:00,
2013-05-13 16:40:00,71.6,55.1,30.04,SSW,209,0.0,5.8,56,0.00,,CLR,0.00,VWS V14.01,2013-05-13 21:40:00,
2013-05-13 16:45:00,72.3,55.8,30.04,SW,235,3.1,7.2,56,0.00,,CLR,0.00,VWS V14.01,2013-05-13 21:45:00,
2013-05-13 16:50:00,72.5,55.9,30.04,SW,231,0.0,0.0,56,0.00,,CLR,0.00,VWS V14.01,2013-05-13 21:50:00,
2013-05-13 16:55:00,72.7,56.1,30.04,NNW,329,3.1,3.1,56,0.00,,CLR,0.00,VWS V14.01,2013-05-13 21:55:00,
2013-05-13 17:00:00,72.1,55.6,30.04,SSW,207,3.1,3.1,56,0.00,,CLR,0.00,VWS V14.01,2013-05-13 22:00:00,
2013-05-13 17:05:00,71.4,56.6,30.04,SSW,202,2.7,2.7,60,0.00,,CLR,0.00,VWS V14.01,2013-05-13 22:05:00,
2013-05-13 17:10:00,71.4,56.6,30.04,South,177,0.0,0.0,60,0.00,,CLR,0.00,VWS V14.01,2013-05-13 22:10:00,
2013-05-13 17:15:00,71.8,55.3,30.04,SSW,192,0.0,3.1,56,0.00,,CLR,0.00,VWS V14.01,2013-05-13 22:15:00,
2013-05-13 17:20:00,71.6,55.1,30.04,SW,225,4.0,4.0,56,0.00,,CLR,0.00,VWS V14.01,2013-05-13 22:20:00,
2013-05-13 17:25:00,71.8,55.3,30.04,SW,223,0.0,5.4,56,0.00,,CLR,0.00,VWS V14.01,2013-05-13 22:25:00,
2013-05-13 17:30:00,71.6,55.1,30.04,WSW,242,0.0,0.0,56,0.00,,CLR,0.00,VWS V14.01,2013-05-13 22:30:00,
2013-05-13 17:36:00,71.6,55.1,30.04,SW,236,5.4,5.4,56,0.00,,CLR,0.00,VWS V14.01,2013-05-13 22:36:00,
2013-05-13 17:41:00,70.9,56.1,30.04,SSW,200,3.1,3.1,60,0.00,,CLR,0.00,VWS V14.01,2013-05-13 22:41:00,
2013-05-13 17:46:00,70.5,55.8,30.04,SSW,192,0.0,5.4,60,0.00,,CLR,0.00,VWS V14.01,2013-05-13 22:46:00,
2013-05-13 17:51:00,70.7,55.9,30.04,SW,232,0.0,2.7,60,0.00,,CLR,0.00,VWS V14.01,2013-05-13 22:51:00,
2013-05-13 17:56:00,70.7,55.9,30.04,SW,235,0.0,2.2,60,0.00,,CLR,0.00,VWS V14.01,2013-05-13 22:56:00,
2013-05-13 18:01:00,70.7,55.9,30.01,SSE,155,2.7,5.8,60,0.00,,CLR,0.00,VWS V14.01,2013-05-13 23:01:00,
2013-05-13 18:06:00,70.3,55.6,30.01,SSW,199,4.0,7.6,60,0.00,,CLR,0.00,VWS V14.01,2013-05-13 23:06:00,
2013-05-13 18:11:00,70.5,55.8,30.01,North,353,0.0,0.0,60,0.00,,CLR,0.00,VWS V14.01,2013-05-13 23:11:00,
2013-05-13 18:16:00,71.4,56.6,30.01,NNW,328,0.0,4.9,60,0.00,,CLR,0.00,VWS V14.01,2013-05-13 23:16:00,
2013-05-13 18:21:00,71.4,56.6,30.01,WSW,238,0.0,5.4,60,0.00,,CLR,0.00,VWS V14.01,2013-05-13 23:21:00,
2013-05-13 18:26:00,71.1,56.3,30.01,West,260,2.7,3.6,60,0.00,,CLR,0.00,VWS V14.01,2013-05-13 23:26:00,
2013-05-13 18:32:00,70.7,55.9,30.01,South,188,3.1,3.6,60,0.00,,CLR,0.00,VWS V14.01,2013-05-13 23:32:00,
2013-05-13 18:37:00,70.5,55.8,30.01,SSW,198,2.7,4.9,60,0.00,,CLR,0.00,VWS V14.01,2013-05-13 23:37:00,
2013-05-13 18:42:00,70.3,55.6,30.01,SSW,200,0.0,0.0,60,0.00,,CLR,0.00,VWS V14.01,2013-05-13 23:42:00,
2013-05-13 18:47:00,69.6,54.9,30.01,SW,219,0.0,0.0,60,0.00,,CLR,0.00,VWS V14.01,2013-05-13 23:47:00,
2013-05-13 18:52:00,68.7,54.1,30.01,WSW,245,0.0,2.7,60,0.00,,CLR,0.00,VWS V14.01,2013-05-13 23:52:00,
2013-05-13 18:57:00,68.2,53.5,30.01,SSE,148,3.6,3.6,60,0.00,,CLR,0.00,VWS V14.01,2013-05-13 23:57:00,
2013-05-13 19:02:00,67.6,53.0,30.01,SSW,203,3.6,6.3,60,0.00,,CLR,0.00,VWS V14.01,2013-05-14 00:02:00,
2013-05-13 19:07:00,67.3,52.7,30.01,SSW,201,2.7,5.4,60,0.00,,CLR,0.00,VWS V14.01,2013-05-14 00:07:00,
2013-05-13 19:12:00,67.1,52.5,30.01,SE,144,3.1,6.3,60,0.00,,CLR,0.00,VWS V14.01,2013-05-14 00:12:00,
2013-05-13 19:17:00,67.1,52.5,30.01,SSW,192,0.0,6.3,60,0.00,,CLR,0.00,VWS V14.01,2013-05-14 00:17:00,
2013-05-13 19:22:00,66.9,52.4,30.01,SE,144,0.0,5.4,60,0.00,,SCT120,0.00,VWS V14.01,2013-05-14 00:22:00,
2013-05-13 19:28:00,66.7,52.2,30.01,South,185,0.0,3.6,60,0.00,,SCT120,0.00,VWS V14.01,2013-05-14 00:28:00,
2013-05-13 19:33:00,66.7,52.2,30.01,SSW,205,3.1,4.9,60,0.00,,SCT120,0.00,VWS V14.01,2013-05-14 00:33:00,
2013-05-13 19:38:00,66.6,52.0,30.01,SSW,213,0.0,0.0,60,0.00,,SCT120,0.00,VWS V14.01,2013-05-14 00:38:00,
2013-05-13 19:43:00,66.4,51.9,30.01,SSW,202,0.0,0.0,60,0.00,,CLR,0.00,VWS V14.01,2013-05-14 00:43:00,
2013-05-13 19:48:00,66.4,51.9,30.01,SSE,155,0.0,0.0,60,0.00,,CLR,0.00,VWS V14.01,2013-05-14 00:48:00,
2013-05-13 19:53:00,66.2,51.7,30.01,South,170,0.0,0.0,60,0.00,,CLR,0.00,VWS V14.01,2013-05-14 00:53:00,
2013-05-13 19:58:00,66.0,53.1,30.01,SSW,197,0.0,0.0,63,0.00,,CLR,0.00,VWS V14.01,2013-05-14 00:58:00,
2013-05-13 20:03:00,65.7,52.7,30.01,SSE,151,0.0,4.0,63,0.00,,SCT120,0.00,VWS V14.01,2013-05-14 01:03:00,
2013-05-13 20:08:00,65.3,52.4,30.01,SW,232,0.0,0.0,63,0.00,,SCT120,0.00,VWS V14.01,2013-05-14 01:08:00,
2013-05-13 20:13:00,64.9,52.1,30.01,SSW,197,0.0,4.9,63,0.00,,SCT120,0.00,VWS V14.01,2013-05-14 01:13:00,
2013-05-13 20:19:00,64.8,51.9,30.01,South,180,0.0,0.0,63,0.00,,SCT120,0.00,VWS V14.01,2013-05-14 01:19:00,
2013-05-13 20:24:00,64.4,51.5,30.01,SSE,166,0.0,0.0,63,0.00,,CLR,0.00,VWS V14.01,2013-05-14 01:24:00,
2013-05-13 20:29:00,64.2,51.4,30.01,South,182,0.0,0.0,63,0.00,,CLR,0.00,VWS V14.01,2013-05-14 01:29:00,
2013-05-13 20:34:00,63.9,51.0,30.01,South,189,0.0,0.0,63,0.00,,CLR,0.00,VWS V14.01,2013-05-14 01:34:00,
2013-05-13 20:39:00,63.7,50.9,30.01,SSW,195,2.2,4.9,63,0.00,,CLR,0.00,VWS V14.01,2013-05-14 01:39:00,
2013-05-13 20:44:00,63.5,50.7,30.01,SSE,154,3.1,3.6,63,0.00,,CLR,0.00,VWS V14.01,2013-05-14 01:44:00,
2013-05-13 20:49:00,63.3,50.5,30.01,SSW,199,0.0,3.6,63,0.00,,CLR,0.00,VWS V14.01,2013-05-14 01:49:00,
2013-05-13 20:54:00,63.1,50.3,30.01,SSE,167,0.0,4.0,63,0.00,,CLR,0.00,VWS V14.01,2013-05-14 01:54:00,
2013-05-13 20:59:00,63.1,50.3,30.01,SSW,193,0.0,5.4,63,0.00,,CLR,0.00,VWS V14.01,2013-05-14 01:59:00,
2013-05-13 21:04:00,63.0,50.2,30.01,SE,129,0.0,4.0,63,0.00,,CLR,0.00,VWS V14.01,2013-05-14 02:04:00,
2013-05-13 21:09:00,63.0,50.2,30.01,South,186,0.0,0.0,63,0.00,,CLR,0.00,VWS V14.01,2013-05-14 02:09:00,
2013-05-13 21:15:00,62.8,50.0,29.98,SSE,157,3.1,4.0,63,0.00,,CLR,0.00,VWS V14.01,2013-05-14 02:15:00,
2013-05-13 21:20:00,62.8,50.0,29.98,South,172,0.0,4.0,63,0.00,,CLR,0.00,VWS V14.01,2013-05-14 02:20:00,
2013-05-13 21:25:00,63.0,50.2,29.98,SSE,168,2.7,5.4,63,0.00,,CLR,0.00,VWS V14.01,2013-05-14 02:25:00,
2013-05-13 21:30:00,63.0,50.2,30.01,SSE,156,0.0,3.6,63,0.00,,CLR,0.00,VWS V14.01,2013-05-14 02:30:00,
2013-05-13 21:35:00,63.1,50.3,30.01,SSW,199,2.7,5.4,63,0.00,,CLR,0.00,VWS V14.01,2013-05-14 02:35:00,
2013-05-13 21:40:00,63.1,50.3,30.01,SE,144,3.1,6.3,63,0.00,,CLR,0.00,VWS V14.01,2013-05-14 02:40:00,
2013-05-13 21:45:00,63.1,50.3,30.01,South,185,0.0,5.4,63,0.00,,CLR,0.00,VWS V14.01,2013-05-14 02:45:00,
2013-05-13 21:50:00,63.1,50.3,30.01,SW,217,4.0,4.0,63,0.00,,CLR,0.00,VWS V14.01,2013-05-14 02:50:00,
2013-05-13 21:55:00,63.1,50.3,30.01,South,185,4.0,8.1,63,0.00,,CLR,0.00,VWS V14.01,2013-05-14 02:55:00,
2013-05-13 22:00:00,63.1,50.3,30.01,SSE,164,2.7,3.6,63,0.00,,CLR,0.00,VWS V14.01,2013-05-14 03:00:00,
2013-05-13 22:05:00,63.1,50.3,30.01,South,191,2.7,4.9,63,0.00,,CLR,0.00,VWS V14.01,2013-05-14 03:05:00,
2013-05-13 22:10:00,63.0,50.2,30.01,South,185,0.0,0.0,63,0.00,,CLR,0.00,VWS V14.01,2013-05-14 03:10:00,
2013-05-13 22:15:00,63.0,50.2,30.01,SSE,164,3.6,5.4,63,0.00,,CLR,0.00,VWS V14.01,2013-05-14 03:15:00,
2013-05-13 22:20:00,62.8,50.0,30.01,SSW,201,3.1,4.0,63,0.00,,CLR,0.00,VWS V14.01,2013-05-14 03:20:00,
2013-05-13 22:26:00,62.8,50.0,30.01,South,185,2.7,3.6,63,0.00,,CLR,0.00,VWS V14.01,2013-05-14 03:26:00,
2013-05-13 22:31:00,62.6,49.8,30.01,South,171,0.0,0.0,63,0.00,,CLR,0.00,VWS V14.01,2013-05-14 03:31:00,
2013-05-13 22:36:00,62.4,51.1,30.01,SSE,164,4.9,4.9,66,0.00,,CLR,0.00,VWS V14.01,2013-05-14 03:36:00,
2013-05-13 22:41:00,62.2,51.0,30.01,SSW,195,3.1,3.6,66,0.00,,CLR,0.00,VWS V14.01,2013-05-14 03:41:00,
2013-05-13 22:46:00,62.1,50.8,30.01,SSE,165,2.2,4.9,66,0.00,,CLR,0.00,VWS V14.01,2013-05-14 03:46:00,
2013-05-13 22:51:00,61.7,50.4,30.01,SSW,194,2.2,4.0,66,0.00,,CLR,0.00,VWS V14.01,2013-05-14 03:51:00,
2013-05-13 22:56:00,61.3,50.1,30.01,SSE,158,0.0,4.0,66,0.00,,CLR,0.00,VWS V14.01,2013-05-14 03:56:00,
2013-05-13 23:01:00,61.2,49.9,30.01,South,186,3.6,4.0,66,0.00,,CLR,0.00,VWS V14.01,2013-05-14 04:01:00,
2013-05-13 23:02:00,61.2,49.9,30.01,South,174,4.0,4.0,66,0.00,,CLR,0.00,VWS V14.01,2013-05-14 04:02:00,
2013-05-13 23:07:00,61.0,49.8,30.01,SSW,211,3.6,5.8,66,0.00,,CLR,0.00,VWS V14.01,2013-05-14 04:07:00,
2013-05-13 23:12:00,60.8,49.6,30.01,SE,144,5.8,5.8,66,0.00,,CLR,0.00,VWS V14.01,2013-05-14 04:12:00,
2013-05-13 23:17:00,61.0,49.8,30.01,SSW,193,0.0,3.6,66,0.00,,CLR,0.00,VWS V14.01,2013-05-14 04:17:00,
2013-05-13 23:22:00,61.0,49.8,30.01,SSW,192,3.6,4.0,66,0.00,,CLR,0.00,VWS V14.01,2013-05-14 04:22:00,
2013-05-13 23:27:00,61.0,49.8,30.01,South,190,2.7,5.4,66,0.00,,CLR,0.00,VWS V14.01,2013-05-14 04:27:00,
2013-05-13 23:32:00,61.0,49.8,29.98,SSW,194,2.7,5.4,66,0.00,,CLR,0.00,VWS V14.01,2013-05-14 04:32:00,
2013-05-13 23:38:00,60.8,49.6,29.98,South,190,4.0,8.1,66,0.00,,CLR,0.00,VWS V14.01,2013-05-14 04:38:00,
2013-05-13 23:43:00,61.0,49.8,29.98,SSW,199,3.1,6.3,66,0.00,,CLR,0.00,VWS V14.01,2013-05-14 04:43:00,
2013-05-13 23:48:00,61.0,49.8,29.98,South,180,4.0,5.8,66,0.00,,CLR,0.00,VWS V14.01,2013-05-14 04:48:00,
2013-05-13 23:53:00,60.8,49.6,29.98,SSW,210,4.0,4.9,66,0.00,,CLR,0.00,VWS V14.01,2013-05-14 04:53:00,
2013-05-13 23:58:00,60.6,49.4,29.98,SSE,159,3.1,6.3,66,0.00,,CLR,0.00,VWS V14.01,2013-05-14 04:58:00,